Time;durP1;ratioP1;P1;durP2;ratioP2;P2;SDS_P1;SDS_P2;PMS_P1;PMS_P2;Temp;Humidity;BMP_temperature;BMP_pressure;BME280_temperature;BME280_humidity;BME280_pressure;Samples;Min_cycle;Max_cycle;Signal;HPM_P1;HPM_P2
2022/11/27 00:01:38;;;;;;;;;;;10.80;99.90;;;;;;5083809;28;19908;-73
2022/11/27 00:04:04;;;;;;;;;;;10.90;99.90;;;;;;5081987;28;19933;-72
2022/11/27 00:06:31;;;;;;;;;;;10.80;99.90;;;;;;5104327;28;19908;-72
2022/11/27 00:08:57;;;;;;;;;;;10.80;99.90;;;;;;5095161;28;19965;-72
2022/11/27 00:11:23;;;;;;;;;;;10.70;99.90;;;;;;5082763;28;19919;-72
2022/11/27 00:13:50;;;;;;;;;;;10.60;99.90;;;;;;5119493;27;20389;-73
2022/11/27 00:16:37;;;;;;;;;;;10.80;99.90;;;;;;5081929;28;19919;-73
2022/11/27 00:19:09;;;;;;;;;;;10.70;99.90;;;;;;5097983;28;19919;-72
2022/11/27 00:21:35;;;;;;;;;;;10.60;99.90;;;;;;5093561;28;19930;-72
2022/11/27 00:24:03;;;;;;;;;;;10.60;99.90;;;;;;5094730;28;19977;-73
2022/11/27 00:26:30;;;;;;;;;;;10.70;99.90;;;;;;5097985;28;19959;-72
2022/11/27 00:28:55;;;;;;;;;;;10.70;99.90;;;;;;5102873;28;19915;-72
2022/11/27 00:31:25;;;;;;;;;;;10.70;99.90;;;;;;5076992;28;20427;-72
2022/11/27 00:33:52;;;;;;;;;;;10.70;99.90;;;;;;5095155;28;19912;-73
2022/11/27 00:36:18;;;;;;;;;;;10.60;99.90;;;;;;5098791;28;19914;-72
2022/11/27 00:38:44;;;;;;;;;;;10.60;99.90;;;;;;5083746;28;20361;-72
2022/11/27 00:41:20;;;;;;;;;;;10.60;99.90;;;;;;5102851;28;19920;-72
2022/11/27 00:43:46;;;;;;;;;;;10.60;99.90;;;;;;5102980;28;19916;-72
2022/11/27 00:46:12;;;;;;;;;;;10.50;99.90;;;;;;5086604;28;19928;-72
2022/11/27 00:48:38;;;;;;;;;;;10.50;99.90;;;;;;5083234;28;19920;-72
2022/11/27 00:51:05;;;;;;;;;;;10.60;99.90;;;;;;5079828;28;19919;-72
2022/11/27 00:53:31;;;;;;;;;;;10.50;99.90;;;;;;5081886;28;19912;-72
2022/11/27 00:55:56;;;;;;;;;;;10.40;99.90;;;;;;5081005;28;19931;-72
2022/11/27 00:58:22;;;;;;;;;;;10.40;99.90;;;;;;5084508;28;20281;-73
2022/11/27 01:00:58;;;;;;;;;;;10.40;99.90;;;;;;5079861;28;19923;-72
2022/11/27 01:03:24;;;;;;;;;;;10.30;99.90;;;;;;5081130;28;19912;-73
2022/11/27 01:05:50;;;;;;;;;;;10.40;99.90;;;;;;5083787;28;19926;-72
2022/11/27 01:08:16;;;;;;;;;;;10.40;99.90;;;;;;5097924;28;20003;-72
2022/11/27 01:10:51;;;;;;;;;;;10.40;99.90;;;;;;5096032;28;20252;-73
2022/11/27 01:13:17;;;;;;;;;;;10.30;99.90;;;;;;5096483;28;19935;-73
2022/11/27 01:15:43;;;;;;;;;;;10.40;99.90;;;;;;5088297;28;19975;-73
2022/11/27 01:18:09;;;;;;;;;;;10.50;99.90;;;;;;5100244;28;20059;-75
2022/11/27 01:20:38;;;;;;;;;;;10.60;99.90;;;;;;5099082;28;19962;-73
2022/11/27 01:23:04;;;;;;;;;;;10.50;99.90;;;;;;5093920;28;19909;-73
2022/11/27 01:25:30;;;;;;;;;;;10.40;99.90;;;;;;5107656;27;19912;-73
2022/11/27 01:27:55;;;;;;;;;;;10.30;99.90;;;;;;5086487;28;20319;-73
2022/11/27 01:30:21;;;;;;;;;;;10.30;99.90;;;;;;5082141;28;20308;-73
2022/11/27 01:32:47;;;;;;;;;;;10.20;99.90;;;;;;5078201;28;19919;-73
2022/11/27 01:35:12;;;;;;;;;;;10.30;99.90;;;;;;5085035;28;20003;-73
2022/11/27 01:37:38;;;;;;;;;;;10.20;99.90;;;;;;5078787;28;19912;-73
2022/11/27 01:40:04;;;;;;;;;;;10.20;99.90;;;;;;5084819;28;20481;-73
2022/11/27 01:42:29;;;;;;;;;;;10.30;99.90;;;;;;5081779;28;19936;-73
2022/11/27 01:44:55;;;;;;;;;;;10.20;99.90;;;;;;5065624;28;19912;-73
2022/11/27 01:47:26;;;;;;;;;;;10.10;99.90;;;;;;5078510;28;19927;-73
2022/11/27 01:49:53;;;;;;;;;;;10.20;99.90;;;;;;5083583;28;21695;-73
2022/11/27 01:52:26;;;;;;;;;;;10.30;99.90;;;;;;5085727;28;19911;-74
2022/11/27 01:54:58;;;;;;;;;;;10.40;99.90;;;;;;5079471;28;19986;-73
2022/11/27 01:57:42;;;;;;;;;;;10.50;99.90;;;;;;5081809;28;19923;-73
2022/11/27 02:00:09;;;;;;;;;;;10.50;99.90;;;;;;5081616;28;20022;-73
2022/11/27 02:02:35;;;;;;;;;;;10.50;99.90;;;;;;5080217;28;19917;-73
2022/11/27 02:05:00;;;;;;;;;;;10.50;99.90;;;;;;5084458;28;20398;-73
2022/11/27 02:07:26;;;;;;;;;;;10.60;99.90;;;;;;5084775;28;19912;-73
2022/11/27 02:09:51;;;;;;;;;;;10.50;99.90;;;;;;5090627;28;19974;-73
2022/11/27 02:12:23;;;;;;;;;;;10.50;99.90;;;;;;5107675;27;19912;-73
2022/11/27 02:15:10;;;;;;;;;;;10.40;99.90;;;;;;5088097;28;20003;-75
2022/11/27 02:17:38;;;;;;;;;;;10.40;99.90;;;;;;5086090;28;19913;-73
2022/11/27 02:20:16;;;;;;;;;;;10.30;99.90;;;;;;5104832;28;20010;-73
2022/11/27 02:23:11;;;;;;;;;;;10.40;99.90;;;;;;5115366;28;19908;-73
2022/11/27 02:25:43;;;;;;;;;;;10.40;99.90;;;;;;5078186;28;20069;-72
2022/11/27 02:28:20;;;;;;;;;;;10.40;99.90;;;;;;5083711;28;20044;-73
2022/11/27 02:30:50;;;;;;;;;;;10.30;99.90;;;;;;5085639;28;19916;-72
2022/11/27 02:33:18;;;;;;;;;;;10.20;99.90;;;;;;5066347;28;19919;-72
2022/11/27 02:35:54;;;;;;;;;;;10.30;99.90;;;;;;5099798;27;19924;-72
2022/11/27 02:38:24;;;;;;;;;;;10.30;99.90;;;;;;5086679;28;19928;-73
2022/11/27 02:40:53;;;;;;;;;;;10.30;99.90;;;;;;5099620;28;20010;-73
2022/11/27 02:43:27;;;;;;;;;;;10.20;99.90;;;;;;5099688;28;19916;-73
2022/11/27 02:45:54;;;;;;;;;;;10.30;99.90;;;;;;5089834;28;20285;-73
2022/11/27 02:48:23;;;;;;;;;;;10.40;99.90;;;;;;5087617;28;20038;-73
2022/11/27 02:50:49;;;;;;;;;;;10.40;99.90;;;;;;5087915;28;19961;-73
2022/11/27 02:53:21;;;;;;;;;;;10.50;99.90;;;;;;5083050;28;19919;-73
2022/11/27 02:55:48;;;;;;;;;;;10.50;99.90;;;;;;5084494;28;19924;-73
2022/11/27 02:58:16;;;;;;;;;;;10.40;99.90;;;;;;5086522;28;19912;-73
2022/11/27 03:00:43;;;;;;;;;;;10.50;99.90;;;;;;5084081;28;20034;-73
2022/11/27 03:03:10;;;;;;;;;;;10.40;99.90;;;;;;5071651;28;19981;-73
2022/11/27 03:05:39;;;;;;;;;;;10.40;99.90;;;;;;5102095;28;19912;-72
2022/11/27 03:08:06;;;;;;;;;;;10.50;99.90;;;;;;5091188;28;19955;-72
2022/11/27 03:10:45;;;;;;;;;;;10.40;99.90;;;;;;5103869;27;19924;-72
2022/11/27 03:13:11;;;;;;;;;;;10.30;99.90;;;;;;5084980;28;20368;-73
2022/11/27 03:15:40;;;;;;;;;;;10.40;99.90;;;;;;5084618;28;20026;-73
2022/11/27 03:18:11;;;;;;;;;;;10.40;99.90;;;;;;5083003;28;20003;-72
2022/11/27 03:20:38;;;;;;;;;;;10.40;99.90;;;;;;5084575;28;20277;-72
2022/11/27 03:23:04;;;;;;;;;;;10.30;99.90;;;;;;5097629;27;19927;-73
2022/11/27 03:25:29;;;;;;;;;;;10.30;99.90;;;;;;5060522;28;19995;-73
2022/11/27 03:28:00;;;;;;;;;;;10.30;99.90;;;;;;5082204;28;19920;-73
2022/11/27 03:30:26;;;;;;;;;;;10.40;99.90;;;;;;5083510;28;20385;-72
2022/11/27 03:32:51;;;;;;;;;;;10.40;99.90;;;;;;5082906;28;19930;-72
2022/11/27 03:35:20;;;;;;;;;;;10.40;99.90;;;;;;5070075;28;19998;-72
2022/11/27 03:37:46;;;;;;;;;;;10.40;99.90;;;;;;5084600;28;19966;-72
2022/11/27 03:40:15;;;;;;;;;;;10.30;99.90;;;;;;5094097;28;20253;-73
2022/11/27 03:42:47;;;;;;;;;;;10.50;99.90;;;;;;5101648;28;19915;-73
2022/11/27 03:45:19;;;;;;;;;;;10.50;99.90;;;;;;5095056;28;19912;-73
2022/11/27 03:47:48;;;;;;;;;;;10.50;99.90;;;;;;5095587;28;19919;-72
2022/11/27 03:50:32;;;;;;;;;;;10.40;99.90;;;;;;5095950;28;19913;-72
2022/11/27 03:52:58;;;;;;;;;;;10.40;99.90;;;;;;5095620;28;19955;-74
2022/11/27 03:55:24;;;;;;;;;;;10.50;99.90;;;;;;5095582;28;19958;-72
2022/11/27 03:57:55;;;;;;;;;;;10.50;99.90;;;;;;5100024;28;20425;-72
2022/11/27 04:00:21;;;;;;;;;;;10.60;99.90;;;;;;5114087;28;19911;-72
2022/11/27 04:02:49;;;;;;;;;;;10.50;99.90;;;;;;5095627;28;20110;-72
2022/11/27 04:05:36;;;;;;;;;;;10.50;99.90;;;;;;5094458;28;19935;-72
2022/11/27 04:08:03;;;;;;;;;;;10.50;99.90;;;;;;5096505;28;19951;-72
2022/11/27 04:10:28;;;;;;;;;;;10.50;99.90;;;;;;5115954;28;19975;-72
2022/11/27 04:13:03;;;;;;;;;;;10.40;99.90;;;;;;5115669;27;20364;-72
2022/11/27 04:15:32;;;;;;;;;;;10.40;99.90;;;;;;5115108;28;20014;-72
2022/11/27 04:17:57;;;;;;;;;;;10.50;99.90;;;;;;5107336;28;19934;-72
2022/11/27 04:20:23;;;;;;;;;;;10.50;99.90;;;;;;5077669;28;21302;-72
2022/11/27 04:22:49;;;;;;;;;;;10.40;99.90;;;;;;5084691;28;20059;-72
2022/11/27 04:25:14;;;;;;;;;;;10.50;99.90;;;;;;5060057;28;19951;-72
2022/11/27 04:27:40;;;;;;;;;;;10.50;99.90;;;;;;5070843;28;19927;-72
2022/11/27 04:30:06;;;;;;;;;;;10.40;99.90;;;;;;5067964;28;19928;-72
2022/11/27 04:32:32;;;;;;;;;;;10.50;99.90;;;;;;5066050;28;19923;-73
2022/11/27 04:34:57;;;;;;;;;;;10.40;99.90;;;;;;5069545;28;19952;-73
2022/11/27 04:37:23;;;;;;;;;;;10.40;99.90;;;;;;5124209;27;20273;-73
2022/11/27 04:39:49;;;;;;;;;;;10.40;99.90;;;;;;5130797;27;19915;-73
2022/11/27 04:42:14;;;;;;;;;;;10.40;99.90;;;;;;5076738;28;19982;-73
2022/11/27 04:44:40;;;;;;;;;;;10.40;99.90;;;;;;5076779;28;19912;-73
2022/11/27 04:47:06;;;;;;;;;;;10.40;99.90;;;;;;5076393;28;19914;-73
2022/11/27 04:49:31;;;;;;;;;;;10.30;99.90;;;;;;5073185;28;19931;-73
2022/11/27 04:51:57;;;;;;;;;;;10.30;99.90;;;;;;5068559;28;19917;-73
2022/11/27 04:54:23;;;;;;;;;;;10.20;99.90;;;;;;5066321;28;19931;-73
2022/11/27 04:56:48;;;;;;;;;;;10.20;99.90;;;;;;5063540;28;20155;-73
2022/11/27 04:59:14;;;;;;;;;;;10.30;99.90;;;;;;5081242;28;19912;-72
2022/11/27 05:01:40;;;;;;;;;;;10.30;99.90;;;;;;5070115;28;19920;-72
2022/11/27 05:04:05;;;;;;;;;;;10.30;99.90;;;;;;5079986;28;19959;-72
2022/11/27 05:06:31;;;;;;;;;;;10.30;99.90;;;;;;5082171;28;19981;-72
2022/11/27 05:09:00;;;;;;;;;;;10.30;99.90;;;;;;5085878;28;19912;-72
2022/11/27 05:11:27;;;;;;;;;;;10.20;99.90;;;;;;5084865;28;19912;-72
2022/11/27 05:14:13;;;;;;;;;;;10.20;99.90;;;;;;5074990;28;20380;-72
2022/11/27 05:16:38;;;;;;;;;;;10.20;99.90;;;;;;5100065;28;19913;-72
2022/11/27 05:19:04;;;;;;;;;;;10.20;99.90;;;;;;5075924;28;19908;-72
2022/11/27 05:21:30;;;;;;;;;;;10.20;99.90;;;;;;5109725;28;19959;-72
2022/11/27 05:23:55;;;;;;;;;;;10.20;99.90;;;;;;5076410;28;19908;-72
2022/11/27 05:26:21;;;;;;;;;;;10.20;99.90;;;;;;5072215;28;19919;-72
2022/11/27 05:28:47;;;;;;;;;;;10.20;99.90;;;;;;5076561;28;19915;-72
2022/11/27 05:31:12;;;;;;;;;;;10.20;99.90;;;;;;5076238;28;19960;-73
2022/11/27 05:33:38;;;;;;;;;;;10.30;99.90;;;;;;5075474;28;19999;-72
2022/11/27 05:36:04;;;;;;;;;;;10.30;99.90;;;;;;5076455;28;19924;-73
2022/11/27 05:38:29;;;;;;;;;;;10.30;99.90;;;;;;5090507;28;19908;-72
2022/11/27 05:40:56;;;;;;;;;;;10.20;99.90;;;;;;5095930;28;19956;-72
2022/11/27 05:43:21;;;;;;;;;;;10.30;99.90;;;;;;5085227;28;19919;-72
2022/11/27 05:45:47;;;;;;;;;;;10.20;99.90;;;;;;5075814;28;19908;-72
2022/11/27 05:48:13;;;;;;;;;;;10.30;99.90;;;;;;5075843;28;19916;-72
2022/11/27 05:50:38;;;;;;;;;;;10.20;99.90;;;;;;5076099;28;19962;-72
2022/11/27 05:53:04;;;;;;;;;;;10.10;99.90;;;;;;5092994;28;19947;-72
2022/11/27 05:55:30;;;;;;;;;;;10.20;99.90;;;;;;5094007;28;19912;-72
2022/11/27 05:57:56;;;;;;;;;;;10.10;99.90;;;;;;5075845;28;19909;-72
2022/11/27 06:00:22;;;;;;;;;;;10.10;99.90;;;;;;5075065;28;20393;-72
2022/11/27 06:02:47;;;;;;;;;;;10.10;99.90;;;;;;5092161;28;19908;-72
2022/11/27 06:05:13;;;;;;;;;;;10.10;99.90;;;;;;5081399;28;20165;-72
2022/11/27 06:07:39;;;;;;;;;;;10.10;99.90;;;;;;5075095;28;19912;-72
2022/11/27 06:10:05;;;;;;;;;;;10.20;99.90;;;;;;5117990;27;20204;-72
2022/11/27 06:12:31;;;;;;;;;;;10.20;99.90;;;;;;5109738;28;19908;-72
2022/11/27 06:14:57;;;;;;;;;;;10.10;99.90;;;;;;5103231;28;19916;-72
2022/11/27 06:17:23;;;;;;;;;;;10.20;99.90;;;;;;5101253;28;20384;-72
2022/11/27 06:19:48;;;;;;;;;;;10.20;99.90;;;;;;5084953;28;19907;-72
2022/11/27 06:22:14;;;;;;;;;;;10.20;99.90;;;;;;5081941;28;19908;-72
2022/11/27 06:24:40;;;;;;;;;;;10.20;99.90;;;;;;5080838;28;19912;-72
2022/11/27 06:27:05;;;;;;;;;;;10.20;99.90;;;;;;5079368;28;19918;-72
2022/11/27 06:29:31;;;;;;;;;;;10.20;99.90;;;;;;5104862;28;19912;-72
2022/11/27 06:31:57;;;;;;;;;;;10.30;99.90;;;;;;5082652;28;19912;-72
2022/11/27 06:34:22;;;;;;;;;;;10.20;99.90;;;;;;5101224;28;20231;-72
2022/11/27 06:36:49;;;;;;;;;;;10.20;99.90;;;;;;5081433;28;20362;-72
2022/11/27 06:39:15;;;;;;;;;;;10.10;99.90;;;;;;5081558;28;20105;-73
2022/11/27 06:41:41;;;;;;;;;;;10.10;99.90;;;;;;5072990;28;20435;-72
2022/11/27 06:44:08;;;;;;;;;;;10.10;99.90;;;;;;5083304;28;19919;-72
2022/11/27 06:46:33;;;;;;;;;;;10.10;99.90;;;;;;5094193;28;19912;-72
2022/11/27 06:48:59;;;;;;;;;;;10.00;99.90;;;;;;5075736;28;19976;-72
2022/11/27 06:51:26;;;;;;;;;;;10.00;99.90;;;;;;5085091;28;19962;-72
2022/11/27 06:53:52;;;;;;;;;;;10.00;99.90;;;;;;5077122;28;19920;-72
2022/11/27 06:56:25;;;;;;;;;;;10.00;99.90;;;;;;5102652;28;19924;-72
2022/11/27 06:58:52;;;;;;;;;;;10.00;99.90;;;;;;5076882;28;19916;-71
2022/11/27 07:01:18;;;;;;;;;;;10.20;99.90;;;;;;5116601;27;19914;-73
2022/11/27 07:03:44;;;;;;;;;;;10.30;99.90;;;;;;5094133;28;19995;-71
2022/11/27 07:06:11;;;;;;;;;;;10.30;99.90;;;;;;5118605;27;19930;-73
2022/11/27 07:08:37;;;;;;;;;;;10.30;99.90;;;;;;5116897;27;19931;-72
2022/11/27 07:11:03;;;;;;;;;;;10.40;99.90;;;;;;5077800;28;19909;-73
2022/11/27 07:13:29;;;;;;;;;;;10.40;99.90;;;;;;5112098;28;19943;-71
2022/11/27 07:15:58;;;;;;;;;;;10.40;99.90;;;;;;5097819;28;19916;-72
2022/11/27 07:18:23;;;;;;;;;;;10.40;99.90;;;;;;5079251;28;19916;-72
2022/11/27 07:20:50;;;;;;;;;;;10.40;99.90;;;;;;5082184;28;20432;-71
2022/11/27 07:23:15;;;;;;;;;;;10.50;99.90;;;;;;5106264;28;19912;-72
2022/11/27 07:25:41;;;;;;;;;;;10.50;99.90;;;;;;5102603;27;20117;-72
2022/11/27 07:28:07;;;;;;;;;;;10.60;99.90;;;;;;5076178;28;19916;-75
2022/11/27 07:30:32;;;;;;;;;;;10.60;99.90;;;;;;5082940;28;19923;-72
2022/11/27 07:32:58;;;;;;;;;;;10.50;99.90;;;;;;5080037;28;19912;-72
2022/11/27 07:35:24;;;;;;;;;;;10.60;99.90;;;;;;5111994;27;19916;-72
2022/11/27 07:37:49;;;;;;;;;;;10.60;99.90;;;;;;5082281;28;20376;-73
2022/11/27 07:40:17;;;;;;;;;;;10.60;99.90;;;;;;5082120;28;19912;-72
2022/11/27 07:42:43;;;;;;;;;;;10.60;99.90;;;;;;5076035;28;20015;-72
2022/11/27 07:45:08;;;;;;;;;;;10.70;99.90;;;;;;5073049;28;19979;-72
2022/11/27 07:47:34;;;;;;;;;;;10.70;99.90;;;;;;5093548;28;19963;-72
2022/11/27 07:50:00;;;;;;;;;;;10.70;99.90;;;;;;5113723;27;19920;-75
2022/11/27 07:52:26;;;;;;;;;;;10.80;99.90;;;;;;5100325;28;19912;-72
2022/11/27 07:54:51;;;;;;;;;;;10.80;99.90;;;;;;5072407;28;19920;-71
2022/11/27 07:57:17;;;;;;;;;;;10.80;99.90;;;;;;5073200;28;19962;-72
2022/11/27 07:59:43;;;;;;;;;;;10.90;99.90;;;;;;5092405;28;20425;-72
2022/11/27 08:02:12;;;;;;;;;;;10.90;99.90;;;;;;5075180;28;19912;-72
2022/11/27 08:04:37;;;;;;;;;;;10.90;99.90;;;;;;5092645;28;19920;-72
2022/11/27 08:07:03;;;;;;;;;;;10.90;99.90;;;;;;5093556;28;19982;-70
2022/11/27 08:09:29;;;;;;;;;;;11.00;99.90;;;;;;5097447;28;19912;-72
2022/11/27 08:11:54;;;;;;;;;;;11.10;99.90;;;;;;5092087;28;19935;-73
2022/11/27 08:14:20;;;;;;;;;;;11.10;99.90;;;;;;5110417;28;19923;-73
2022/11/27 08:16:46;;;;;;;;;;;11.10;99.90;;;;;;5097614;28;19919;-72
2022/11/27 08:19:12;;;;;;;;;;;11.10;99.90;;;;;;5074542;28;19920;-72
2022/11/27 08:21:37;;;;;;;;;;;11.20;99.90;;;;;;5095435;28;20358;-73
2022/11/27 08:24:04;;;;;;;;;;;11.30;99.90;;;;;;5075364;28;19926;-74
2022/11/27 08:26:30;;;;;;;;;;;11.20;99.90;;;;;;5094093;28;20377;-72
2022/11/27 08:28:56;;;;;;;;;;;11.30;99.90;;;;;;5094611;28;19915;-72
2022/11/27 08:31:22;;;;;;;;;;;11.30;99.90;;;;;;5093817;28;20010;-71
2022/11/27 08:33:48;;;;;;;;;;;11.40;99.90;;;;;;5093197;28;19988;-71
2022/11/27 08:36:14;;;;;;;;;;;11.40;99.90;;;;;;5107972;28;19920;-71
2022/11/27 08:38:39;;;;;;;;;;;11.50;99.90;;;;;;5097985;28;19986;-72
2022/11/27 08:41:05;;;;;;;;;;;11.50;99.90;;;;;;5098772;28;19970;-71
2022/11/27 08:43:31;;;;;;;;;;;11.50;99.90;;;;;;5095058;28;19912;-72
2022/11/27 08:45:57;;;;;;;;;;;11.50;99.90;;;;;;5106740;28;19931;-72
2022/11/27 08:48:23;;;;;;;;;;;11.50;99.90;;;;;;5098597;28;19916;-72
2022/11/27 08:50:49;;;;;;;;;;;11.60;99.90;;;;;;5074250;28;20304;-72
2022/11/27 08:53:15;;;;;;;;;;;11.50;99.90;;;;;;5103574;27;19923;-72
2022/11/27 08:55:41;;;;;;;;;;;11.60;99.90;;;;;;5100009;28;19912;-72
2022/11/27 08:58:07;;;;;;;;;;;11.60;99.90;;;;;;5091384;28;19912;-72
2022/11/27 09:00:32;;;;;;;;;;;11.60;99.90;;;;;;5073308;28;19918;-71
2022/11/27 09:02:59;;;;;;;;;;;11.70;99.90;;;;;;5092243;28;19959;-72
2022/11/27 09:05:25;;;;;;;;;;;11.70;99.90;;;;;;5073933;28;20337;-71
2022/11/27 09:07:50;;;;;;;;;;;11.70;99.90;;;;;;5090838;28;19912;-71
2022/11/27 09:10:16;;;;;;;;;;;11.70;99.90;;;;;;5094391;28;19939;-72
2022/11/27 09:12:43;;;;;;;;;;;11.70;99.90;;;;;;5108503;28;19957;-72
2022/11/27 09:15:10;;;;;;;;;;;11.70;99.90;;;;;;5094191;28;19918;-71
2022/11/27 09:17:35;;;;;;;;;;;11.70;99.90;;;;;;5089678;28;20296;-70
2022/11/27 09:20:01;;;;;;;;;;;11.70;99.90;;;;;;5076480;28;20137;-71
2022/11/27 09:22:26;;;;;;;;;;;11.80;99.90;;;;;;5091433;28;20262;-72
2022/11/27 09:24:52;;;;;;;;;;;11.80;99.90;;;;;;5097227;28;19916;-72
2022/11/27 09:27:18;;;;;;;;;;;11.80;99.90;;;;;;5103057;28;19931;-71
2022/11/27 09:29:43;;;;;;;;;;;11.90;99.90;;;;;;5089909;28;19934;-71
2022/11/27 09:32:09;;;;;;;;;;;11.90;99.90;;;;;;5096409;28;20060;-71
2022/11/27 09:34:35;;;;;;;;;;;12.00;99.90;;;;;;5075011;28;20003;-71
2022/11/27 09:37:00;;;;;;;;;;;11.90;99.90;;;;;;5103464;28;19993;-71
2022/11/27 09:39:31;;;;;;;;;;;12.00;99.90;;;;;;5075334;28;19911;-72
2022/11/27 09:41:58;;;;;;;;;;;12.10;99.90;;;;;;5091991;28;19914;-72
2022/11/27 09:44:28;;;;;;;;;;;12.20;99.90;;;;;;5095961;28;20487;-72
2022/11/27 09:46:55;;;;;;;;;;;12.10;99.90;;;;;;5092567;28;20280;-72
2022/11/27 09:49:40;;;;;;;;;;;12.10;99.90;;;;;;5074303;28;19924;-72
2022/11/27 09:52:10;;;;;;;;;;;12.20;99.90;;;;;;5072889;28;19912;-72
2022/11/27 09:54:36;;;;;;;;;;;12.20;99.90;;;;;;5094753;28;19916;-72
2022/11/27 09:57:02;;;;;;;;;;;12.20;99.90;;;;;;5106424;28;20427;-72
2022/11/27 10:00:04;;;;;;;;;;;12.30;99.90;;;;;;5092218;28;19908;-72
2022/11/27 10:02:32;;;;;;;;;;;12.30;99.90;;;;;;5010638;28;19919;-72
2022/11/27 10:04:58;;;;;;;;;;;12.30;99.90;;;;;;5066584;28;20254;-72
2022/11/27 10:07:24;;;;;;;;;;;12.30;99.90;;;;;;5095412;28;19919;-72
2022/11/27 10:09:58;;;;;;;;;;;12.30;99.90;;;;;;5085562;28;19970;-72
2022/11/27 10:12:42;;;;;;;;;;;12.40;99.90;;;;;;5096132;28;20283;-73
2022/11/27 10:15:20;;;;;;;;;;;12.30;99.90;;;;;;5083265;28;19920;-73
2022/11/27 10:17:51;;;;;;;;;;;12.30;99.90;;;;;;5086783;28;19912;-73
2022/11/27 10:20:27;;;;;;;;;;;12.40;99.90;;;;;;5093186;28;19942;-72
2022/11/27 10:23:11;;;;;;;;;;;12.40;99.90;;;;;;5093432;28;19908;-72
2022/11/27 10:25:41;;;;;;;;;;;12.50;99.90;;;;;;5092170;28;19916;-73
2022/11/27 10:28:16;;;;;;;;;;;12.40;99.90;;;;;;5096527;28;19908;-73
2022/11/27 10:31:02;;;;;;;;;;;12.40;99.90;;;;;;5078458;28;19908;-73
2022/11/27 10:33:36;;;;;;;;;;;12.50;99.90;;;;;;5095708;28;19918;-72
2022/11/27 10:36:02;;;;;;;;;;;12.60;99.90;;;;;;5077760;28;19920;-73
2022/11/27 10:38:32;;;;;;;;;;;12.60;99.90;;;;;;5095104;28;19986;-76
2022/11/27 10:41:00;;;;;;;;;;;12.70;99.90;;;;;;5095703;28;20373;-73
2022/11/27 10:43:26;;;;;;;;;;;12.70;99.90;;;;;;5102387;28;19912;-73
2022/11/27 10:45:51;;;;;;;;;;;12.80;99.90;;;;;;5101278;28;19923;-73
2022/11/27 10:48:17;;;;;;;;;;;12.80;99.90;;;;;;5087821;28;20405;-73
2022/11/27 10:50:44;;;;;;;;;;;12.90;99.90;;;;;;5105260;28;19912;-72
2022/11/27 10:53:30;;;;;;;;;;;13.00;99.90;;;;;;5096409;28;19908;-72
2022/11/27 10:56:17;;;;;;;;;;;12.90;99.90;;;;;;5088091;28;20395;-73
2022/11/27 10:59:01;;;;;;;;;;;12.90;99.90;;;;;;5112478;28;19908;-73
2022/11/27 11:01:29;;;;;;;;;;;13.00;99.90;;;;;;5106590;28;19911;-72
2022/11/27 11:04:05;;;;;;;;;;;13.00;99.90;;;;;;5103595;28;19919;-73
2022/11/27 11:06:32;;;;;;;;;;;12.90;99.90;;;;;;5083658;28;19912;-73
2022/11/27 11:09:15;;;;;;;;;;;13.00;99.90;;;;;;5103461;28;19917;-72
2022/11/27 11:11:41;;;;;;;;;;;12.90;99.90;;;;;;5093814;28;19912;-73
2022/11/27 11:14:16;;;;;;;;;;;13.00;99.90;;;;;;5077229;28;19956;-72
2022/11/27 11:16:42;;;;;;;;;;;13.10;99.90;;;;;;5073158;28;20634;-72
2022/11/27 11:19:21;;;;;;;;;;;13.00;99.90;;;;;;5094203;28;19911;-72
2022/11/27 11:21:47;;;;;;;;;;;13.00;99.90;;;;;;5098559;28;19911;-73
2022/11/27 11:24:25;;;;;;;;;;;13.00;99.90;;;;;;5083171;28;19980;-72
2022/11/27 11:26:55;;;;;;;;;;;12.90;99.90;;;;;;5102269;28;20317;-73
2022/11/27 11:29:24;;;;;;;;;;;12.90;99.90;;;;;;5105525;28;19919;-72
2022/11/27 11:31:50;;;;;;;;;;;12.90;99.90;;;;;;5099298;28;19924;-73
2022/11/27 11:34:19;;;;;;;;;;;13.00;99.90;;;;;;5108751;28;19912;-74
2022/11/27 11:37:05;;;;;;;;;;;13.00;99.90;;;;;;5110407;28;19908;-72
2022/11/27 11:39:32;;;;;;;;;;;13.10;99.90;;;;;;5106720;27;19916;-73
2022/11/27 11:41:58;;;;;;;;;;;13.20;99.90;;;;;;5077382;28;19916;-77
2022/11/27 11:44:30;;;;;;;;;;;13.20;99.90;;;;;;5094205;28;20321;-72
2022/11/27 11:46:55;;;;;;;;;;;13.20;99.90;;;;;;5102004;28;20029;-73
2022/11/27 11:49:25;;;;;;;;;;;13.20;99.90;;;;;;5073873;28;19919;-73
2022/11/27 11:51:54;;;;;;;;;;;13.10;99.90;;;;;;5092478;28;19920;-73
2022/11/27 11:54:32;;;;;;;;;;;13.10;99.90;;;;;;5101072;27;19912;-74
2022/11/27 11:56:59;;;;;;;;;;;13.20;99.90;;;;;;5095646;28;19912;-73
2022/11/27 11:59:31;;;;;;;;;;;13.10;99.90;;;;;;5093558;28;19912;-73
2022/11/27 12:01:57;;;;;;;;;;;13.10;99.90;;;;;;5094545;28;20388;-73
2022/11/27 12:04:41;;;;;;;;;;;13.20;99.90;;;;;;5092705;28;19912;-73
2022/11/27 12:07:36;;;;;;;;;;;13.20;99.90;;;;;;5101244;27;19944;-73
2022/11/27 12:10:14;;;;;;;;;;;13.10;99.90;;;;;;5061160;28;19923;-73
2022/11/27 12:12:51;;;;;;;;;;;13.20;99.90;;;;;;5088516;28;19916;-72
2022/11/27 12:15:36;;;;;;;;;;;13.20;99.90;;;;;;5091615;28;20030;-73
2022/11/27 12:18:01;;;;;;;;;;;13.20;99.90;;;;;;5108579;28;20019;-73
2022/11/27 12:20:30;;;;;;;;;;;13.20;99.90;;;;;;5095677;28;20430;-72
2022/11/27 12:23:06;;;;;;;;;;;13.20;99.90;;;;;;5093687;28;19912;-73
2022/11/27 12:25:36;;;;;;;;;;;13.20;99.90;;;;;;5091586;28;20357;-73
2022/11/27 12:28:21;;;;;;;;;;;13.10;99.90;;;;;;5096310;28;19927;-73
2022/11/27 12:31:04;;;;;;;;;;;13.20;99.90;;;;;;5110427;28;19928;-73
2022/11/27 12:33:50;;;;;;;;;;;13.20;99.90;;;;;;5098321;28;20003;-72
2022/11/27 12:36:25;;;;;;;;;;;13.20;99.90;;;;;;5092036;28;19924;-73
2022/11/27 12:38:54;;;;;;;;;;;13.20;99.90;;;;;;5075342;28;19941;-73
2022/11/27 12:41:26;;;;;;;;;;;13.10;99.90;;;;;;5095160;28;20198;-72
2022/11/27 12:43:54;;;;;;;;;;;13.10;99.90;;;;;;5101036;28;20381;-73
2022/11/27 12:46:27;;;;;;;;;;;13.00;99.90;;;;;;5102409;27;19935;-74
2022/11/27 12:48:59;;;;;;;;;;;13.10;99.90;;;;;;5096751;28;19960;-71
2022/11/27 12:51:36;;;;;;;;;;;13.20;99.90;;;;;;5093023;28;19908;-73
2022/11/27 12:54:04;;;;;;;;;;;13.20;99.90;;;;;;5104431;28;19931;-73
2022/11/27 12:56:32;;;;;;;;;;;13.10;99.90;;;;;;5093633;28;19919;-72
2022/11/27 12:59:16;;;;;;;;;;;13.10;99.90;;;;;;5111522;28;19915;-72
2022/11/27 13:01:44;;;;;;;;;;;13.10;99.90;;;;;;5093610;28;19912;-72
2022/11/27 13:04:12;;;;;;;;;;;13.00;99.90;;;;;;5092027;28;20294;-71
2022/11/27 13:06:50;;;;;;;;;;;13.00;99.90;;;;;;5108152;28;19953;-72
2022/11/27 13:09:19;;;;;;;;;;;13.00;99.90;;;;;;5073768;28;19959;-72
2022/11/27 13:11:46;;;;;;;;;;;13.00;99.90;;;;;;5093937;28;19911;-78
2022/11/27 13:14:12;;;;;;;;;;;13.10;99.90;;;;;;5101886;28;19916;-72
2022/11/27 13:16:40;;;;;;;;;;;13.00;99.90;;;;;;5093163;28;20371;-72
2022/11/27 13:19:05;;;;;;;;;;;13.00;99.90;;;;;;5092428;28;19915;-73
2022/11/27 13:21:32;;;;;;;;;;;13.00;99.90;;;;;;5102154;28;20270;-73
2022/11/27 13:24:00;;;;;;;;;;;13.00;99.90;;;;;;5093764;28;19908;-72
2022/11/27 13:26:29;;;;;;;;;;;13.10;99.90;;;;;;5094311;28;19919;-72
2022/11/27 13:28:57;;;;;;;;;;;13.00;99.90;;;;;;5093196;28;19955;-72
2022/11/27 13:31:24;;;;;;;;;;;13.00;99.90;;;;;;5107084;27;19950;-72
2022/11/27 13:33:51;;;;;;;;;;;13.00;99.90;;;;;;5108606;28;20006;-72
2022/11/27 13:36:19;;;;;;;;;;;13.00;99.90;;;;;;5102064;28;20020;-73
2022/11/27 13:38:45;;;;;;;;;;;13.00;99.90;;;;;;5092450;28;20252;-73
2022/11/27 13:41:19;;;;;;;;;;;12.90;99.90;;;;;;5071983;28;19993;-71
2022/11/27 13:43:45;;;;;;;;;;;12.90;99.90;;;;;;5116806;27;20063;-71
2022/11/27 13:46:16;;;;;;;;;;;12.80;99.90;;;;;;5095828;28;19913;-72
2022/11/27 13:48:47;;;;;;;;;;;12.90;99.90;;;;;;5095900;28;19916;-72
2022/11/27 13:51:20;;;;;;;;;;;12.90;99.90;;;;;;5098857;28;20296;-71
2022/11/27 13:53:46;;;;;;;;;;;12.80;99.90;;;;;;5092050;28;19920;-70
2022/11/27 13:56:12;;;;;;;;;;;12.80;99.90;;;;;;5072463;28;20328;-71
2022/11/27 13:58:39;;;;;;;;;;;12.80;99.90;;;;;;5106986;28;19912;-70
2022/11/27 14:01:16;;;;;;;;;;;12.80;99.90;;;;;;5106998;28;19912;-71
2022/11/27 14:03:42;;;;;;;;;;;12.90;99.90;;;;;;5093653;28;19919;-74
2022/11/27 14:06:21;;;;;;;;;;;12.80;99.90;;;;;;5077343;28;19912;-73
2022/11/27 14:08:57;;;;;;;;;;;12.80;99.90;;;;;;5068717;28;19912;-72
2022/11/27 14:11:41;;;;;;;;;;;12.80;99.90;;;;;;5070871;28;19919;-72
2022/11/27 14:14:14;;;;;;;;;;;12.70;99.90;;;;;;5090518;28;19921;-71
2022/11/27 14:16:41;;;;;;;;;;;12.80;99.90;;;;;;5072240;28;19916;-71
2022/11/27 14:19:27;;;;;;;;;;;12.80;99.90;;;;;;5089024;28;19923;-72
2022/11/27 14:21:53;;;;;;;;;;;12.70;99.90;;;;;;5080674;28;19919;-71
2022/11/27 14:24:28;;;;;;;;;;;12.70;99.90;;;;;;5088717;28;19916;-71
2022/11/27 14:26:56;;;;;;;;;;;12.60;99.90;;;;;;5074869;28;19912;-72